»·PEaware :: FDX206 KBUR-KLAS

FDX206 :: KBUR-KLAS

FLIGHT INFORMATION

Flight Status: Arrived
Operator:
Federal Express
More flights by this operator :: More flights under this callsign
Pilot: Nick L. (7253)
Aircraft: AIRBUS A300B4-600
(A306)
More flights by this aircraft type
Origin: KBUR Bob Hope-Burbank
United States
Destination: KLAS Harry Reid Intl
United States
More flights between these airports :: More routes between these airports
Route: SLAPP2 MISEN KEPEC6
File this flight plan on PilotEdge
Remarks: RMK / SIMBRIEF
Altitude:
(Current/Filed)
33,000ft
Speed:
(Current/Filed)
472kts
Departed: 25-Jan-21 04:47 PM
Arrived: 25-Jan-21 05:35 PM
Distance/Time
Traveled:
195nm/0:48
Distance/Time
To Go:
Arrived

Flight Plot

Page will automatically refresh every two minutes.

Flight plan parsing failed; only flown route is shown


Map Options




Map Legend


Flown Route
Filed Route
Departure Airport
Arrival Airport
Navaid (VOR, NDB)
Fix

Horizontal Profiles

Position Reports

Time Latitude Longitude Heading Altitude Ground
Speed
25-Jan-21 16:20 34.196168 -118.360133 179 790ft 0kts
25-Jan-21 16:21 34.196168 -118.360133 179 790ft 0kts
25-Jan-21 16:22 34.196168 -118.360133 179 790ft 0kts
25-Jan-21 16:23 34.196168 -118.360133 179 790ft 0kts
25-Jan-21 16:24 34.196168 -118.360133 179 790ft 0kts
25-Jan-21 16:25 34.196168 -118.360133 179 790ft 0kts
25-Jan-21 16:26 34.196168 -118.360133 179 790ft 0kts
25-Jan-21 16:27 34.196168 -118.360133 179 790ft 0kts
25-Jan-21 16:28 34.196168 -118.360133 179 790ft 0kts
25-Jan-21 16:29 34.196168 -118.360133 179 790ft 0kts
25-Jan-21 16:30 34.196168 -118.360133 179 790ft 0kts
25-Jan-21 16:31 34.196168 -118.360133 179 790ft 0kts
25-Jan-21 16:32 34.196168 -118.360133 179 790ft 0kts
25-Jan-21 16:33 34.196168 -118.360133 179 790ft 0kts
25-Jan-21 16:34 34.196168 -118.360133 179 790ft 0kts
25-Jan-21 16:35 34.196168 -118.360133 179 790ft 0kts
25-Jan-21 16:36 34.196168 -118.360133 179 790ft 0kts
25-Jan-21 16:37 34.196168 -118.360133 179 790ft 0kts
25-Jan-21 16:38 34.196168 -118.360133 179 790ft 0kts
25-Jan-21 16:39 34.196168 -118.360133 179 790ft 0kts
25-Jan-21 16:40 34.196167 -118.360133 179 790ft 0kts
25-Jan-21 16:41 34.196852 -118.358599 88 790ft 9kts
25-Jan-21 16:42 34.195479 -118.356819 167 790ft 7kts
25-Jan-21 16:43 34.195077 -118.356709 167 790ft 0kts
25-Jan-21 16:45 34.194867 -118.356649 166 790ft 8kts
25-Jan-21 16:46 34.195928 -118.355933 348 790ft 27kts
25-Jan-21 16:47 34.226300 -118.370468 296 2430ft 154kts
25-Jan-21 16:48 34.235827 -118.436717 281 4007ft 241kts
25-Jan-21 16:49 34.246736 -118.520656 281 7012ft 255kts
25-Jan-21 16:50 34.258193 -118.606353 287 10708ft 274kts
25-Jan-21 16:51 34.333625 -118.621974 36 12233ft 388kts
25-Jan-21 16:52 34.383984 -118.501466 57 13002ft 404kts
25-Jan-21 16:53 34.439492 -118.384120 55 13005ft 402kts
25-Jan-21 16:54 34.512912 -118.285577 36 12980ft 392kts
25-Jan-21 16:55 34.596149 -118.200835 34 13011ft 392kts
25-Jan-21 16:56 34.667875 -118.095559 61 16331ft 427kts
25-Jan-21 16:57 34.696073 -117.949288 79 19545ft 460kts
25-Jan-21 16:58 34.703987 -117.790611 83 21979ft 480kts
25-Jan-21 16:59 34.710741 -117.626225 84 23763ft 495kts
25-Jan-21 16:59 34.715041 -117.495794 68 24421ft 494kts
25-Jan-21 17:00 34.758182 -117.336867 67 25161ft 497kts
25-Jan-21 17:01 34.801292 -117.176755 67 25634ft 499kts
25-Jan-21 17:02 34.844449 -117.015314 68 26118ft 504kts
25-Jan-21 17:03 34.887732 -116.852825 70 26618ft 508kts
25-Jan-21 17:05 34.943972 -116.675909 48 27670ft 487kts
25-Jan-21 17:05 35.011092 -116.563052 53 27656ft 491kts
25-Jan-21 17:06 35.087711 -116.428021 53 27361ft 460kts
25-Jan-21 17:07 35.170871 -116.313896 43 26305ft 473kts
25-Jan-21 17:08 35.262585 -116.200552 43 23961ft 453kts
25-Jan-21 17:09 35.348593 -116.093274 44 21638ft 431kts
25-Jan-21 17:10 35.432404 -115.988330 44 19702ft 435kts
25-Jan-21 17:11 35.516394 -115.882885 44 17362ft 422kts
25-Jan-21 17:12 35.594994 -115.783895 44 16175ft 383kts
25-Jan-21 17:13 35.662090 -115.698803 44 15118ft 312kts
25-Jan-21 17:14 35.722091 -115.621786 44 13054ft 298kts
25-Jan-21 17:15 35.795041 -115.576096 2 13013ft 300kts
25-Jan-21 17:16 35.880767 -115.569721 1 12997ft 299kts
25-Jan-21 17:17 35.964289 -115.555373 34 12706ft 305kts
25-Jan-21 17:18 36.002779 -115.462862 67 11716ft 299kts
25-Jan-21 17:19 36.027353 -115.368424 88 10835ft 282kts
25-Jan-21 17:20 36.022311 -115.272876 95 9760ft 275kts
25-Jan-21 17:21 36.015944 -115.179626 95 8951ft 270kts
25-Jan-21 17:22 36.010770 -115.088361 95 8151ft 255kts
25-Jan-21 17:23 36.007536 -115.002840 95 7725ft 228kts
25-Jan-21 17:24 36.005803 -114.926135 94 7013ft 208kts
25-Jan-21 17:25 36.004234 -114.850741 94 7020ft 217kts
25-Jan-21 17:26 36.028104 -114.788903 12 7022ft 224kts
25-Jan-21 17:27 36.071464 -114.815125 272 6972ft 198kts
25-Jan-21 17:28 36.073308 -114.882927 266 5976ft 177kts
25-Jan-21 17:29 36.073497 -114.942564 265 5030ft 168kts
25-Jan-21 17:30 36.073592 -114.998090 265 4130ft 149kts
25-Jan-21 17:31 36.073621 -115.048448 265 3329ft 145kts
25-Jan-21 17:32 36.073644 -115.098064 264 2542ft 143kts
25-Jan-21 17:33 36.073646 -115.143901 270 2107ft 79kts
25-Jan-21 17:34 36.074693 -115.150608 297 2128ft 0kts
25-Jan-21 17:35 36.075240 -115.151266 323 2129ft 9kts
25-Jan-21 17:36 36.078060 -115.152070 97 2126ft 11kts
25-Jan-21 17:37 36.077621 -115.144766 94 2103ft 26kts
25-Jan-21 17:38 36.077418 -115.132057 92 2064ft 48kts
25-Jan-21 17:39 36.079925 -115.126356 12 2048ft 8kts
25-Jan-21 17:40 36.080207 -115.125477 90 2047ft 0kts

Navigation Log

Ident Type
Flight plan parsing failed, navigation log unavailable